sensor_id;sensor_type;location;lat;lon;timestamp;P1;durP1;ratioP1;P2;durP2;ratioP2
18999;SDS011;9633;50.980;13.850;2023-03-14T00:00:19;6.57;;;3.63;;
18999;SDS011;9633;50.980;13.850;2023-03-14T00:01:53;3.93;;;2.83;;
18999;SDS011;9633;50.980;13.850;2023-03-14T00:03:28;3.07;;;2.53;;
18999;SDS011;9633;50.980;13.850;2023-03-14T00:05:01;4.20;;;2.90;;
18999;SDS011;9633;50.980;13.850;2023-03-14T00:06:37;4.17;;;2.67;;
18999;SDS011;9633;50.980;13.850;2023-03-14T00:08:11;2.60;;;2.30;;
18999;SDS011;9633;50.980;13.850;2023-03-14T00:09:43;3.47;;;2.37;;
18999;SDS011;9633;50.980;13.850;2023-03-14T00:11:17;3.20;;;2.10;;
18999;SDS011;9633;50.980;13.850;2023-03-14T00:12:51;3.33;;;2.60;;
18999;SDS011;9633;50.980;13.850;2023-03-14T00:14:24;3.73;;;2.80;;
18999;SDS011;9633;50.980;13.850;2023-03-14T00:16:02;2.80;;;2.50;;
18999;SDS011;9633;50.980;13.850;2023-03-14T00:17:36;3.27;;;2.80;;
18999;SDS011;9633;50.980;13.850;2023-03-14T00:19:10;3.27;;;2.97;;
18999;SDS011;9633;50.980;13.850;2023-03-14T00:20:43;3.13;;;2.63;;
18999;SDS011;9633;50.980;13.850;2023-03-14T00:22:16;5.93;;;3.10;;
18999;SDS011;9633;50.980;13.850;2023-03-14T00:23:49;5.47;;;3.33;;
18999;SDS011;9633;50.980;13.850;2023-03-14T00:25:22;5.40;;;3.50;;
18999;SDS011;9633;50.980;13.850;2023-03-14T00:26:55;4.40;;;3.60;;
18999;SDS011;9633;50.980;13.850;2023-03-14T00:28:28;4.30;;;3.20;;
18999;SDS011;9633;50.980;13.850;2023-03-14T00:30:00;4.07;;;3.30;;
18999;SDS011;9633;50.980;13.850;2023-03-14T00:31:35;5.03;;;3.77;;
18999;SDS011;9633;50.980;13.850;2023-03-14T00:33:13;4.43;;;3.80;;
18999;SDS011;9633;50.980;13.850;2023-03-14T00:34:46;4.20;;;3.53;;
18999;SDS011;9633;50.980;13.850;2023-03-14T00:36:19;5.77;;;4.20;;
18999;SDS011;9633;50.980;13.850;2023-03-14T00:37:53;5.73;;;4.20;;
18999;SDS011;9633;50.980;13.850;2023-03-14T00:39:26;6.27;;;4.47;;
18999;SDS011;9633;50.980;13.850;2023-03-14T00:41:02;5.23;;;4.07;;
18999;SDS011;9633;50.980;13.850;2023-03-14T00:42:36;6.27;;;4.13;;
18999;SDS011;9633;50.980;13.850;2023-03-14T00:44:09;5.80;;;4.90;;
18999;SDS011;9633;50.980;13.850;2023-03-14T00:45:43;5.30;;;4.50;;
18999;SDS011;9633;50.980;13.850;2023-03-14T00:47:17;6.10;;;5.10;;
18999;SDS011;9633;50.980;13.850;2023-03-14T00:48:51;6.20;;;4.67;;
18999;SDS011;9633;50.980;13.850;2023-03-14T00:50:23;5.60;;;5.00;;
18999;SDS011;9633;50.980;13.850;2023-03-14T00:51:56;5.90;;;4.97;;
18999;SDS011;9633;50.980;13.850;2023-03-14T00:53:29;5.63;;;4.57;;
18999;SDS011;9633;50.980;13.850;2023-03-14T00:55:03;4.87;;;4.30;;
18999;SDS011;9633;50.980;13.850;2023-03-14T00:56:36;5.47;;;4.47;;
18999;SDS011;9633;50.980;13.850;2023-03-14T00:58:10;4.77;;;4.27;;
18999;SDS011;9633;50.980;13.850;2023-03-14T00:59:44;4.50;;;4.10;;
18999;SDS011;9633;50.980;13.850;2023-03-14T01:01:17;5.30;;;4.17;;
18999;SDS011;9633;50.980;13.850;2023-03-14T01:02:52;4.93;;;4.07;;
18999;SDS011;9633;50.980;13.850;2023-03-14T01:04:27;4.17;;;3.83;;
18999;SDS011;9633;50.980;13.850;2023-03-14T01:06:11;4.47;;;4.07;;
18999;SDS011;9633;50.980;13.850;2023-03-14T01:07:46;4.50;;;4.10;;
18999;SDS011;9633;50.980;13.850;2023-03-14T01:09:19;4.50;;;4.10;;
18999;SDS011;9633;50.980;13.850;2023-03-14T01:10:52;4.90;;;4.40;;
18999;SDS011;9633;50.980;13.850;2023-03-14T01:12:26;5.27;;;4.77;;
18999;SDS011;9633;50.980;13.850;2023-03-14T01:14:00;4.73;;;4.27;;
18999;SDS011;9633;50.980;13.850;2023-03-14T01:15:34;5.17;;;4.47;;
18999;SDS011;9633;50.980;13.850;2023-03-14T01:17:08;4.77;;;4.27;;
18999;SDS011;9633;50.980;13.850;2023-03-14T01:18:43;4.87;;;4.47;;
18999;SDS011;9633;50.980;13.850;2023-03-14T01:20:17;4.47;;;3.97;;
18999;SDS011;9633;50.980;13.850;2023-03-14T01:21:50;4.77;;;4.37;;
18999;SDS011;9633;50.980;13.850;2023-03-14T01:23:23;5.00;;;4.37;;
18999;SDS011;9633;50.980;13.850;2023-03-14T01:24:57;5.80;;;4.93;;
18999;SDS011;9633;50.980;13.850;2023-03-14T01:26:30;5.20;;;4.70;;
18999;SDS011;9633;50.980;13.850;2023-03-14T01:28:05;4.97;;;4.53;;
18999;SDS011;9633;50.980;13.850;2023-03-14T01:29:39;4.57;;;4.17;;
18999;SDS011;9633;50.980;13.850;2023-03-14T01:31:12;5.03;;;4.50;;
18999;SDS011;9633;50.980;13.850;2023-03-14T01:32:46;4.60;;;3.97;;
18999;SDS011;9633;50.980;13.850;2023-03-14T01:34:21;4.93;;;4.33;;
18999;SDS011;9633;50.980;13.850;2023-03-14T01:35:54;4.83;;;4.20;;
18999;SDS011;9633;50.980;13.850;2023-03-14T01:37:27;4.50;;;4.10;;
18999;SDS011;9633;50.980;13.850;2023-03-14T01:39:00;4.80;;;4.40;;
18999;SDS011;9633;50.980;13.850;2023-03-14T01:40:34;5.60;;;4.27;;
18999;SDS011;9633;50.980;13.850;2023-03-14T01:42:13;4.33;;;3.90;;
18999;SDS011;9633;50.980;13.850;2023-03-14T01:43:47;4.97;;;4.07;;
18999;SDS011;9633;50.980;13.850;2023-03-14T01:47:31;3.77;;;3.47;;
18999;SDS011;9633;50.980;13.850;2023-03-14T01:49:06;4.23;;;3.83;;
18999;SDS011;9633;50.980;13.850;2023-03-14T01:50:53;3.87;;;3.37;;
18999;SDS011;9633;50.980;13.850;2023-03-14T01:52:27;4.40;;;3.50;;
18999;SDS011;9633;50.980;13.850;2023-03-14T01:54:08;4.17;;;3.77;;
18999;SDS011;9633;50.980;13.850;2023-03-14T01:55:44;3.70;;;3.40;;
18999;SDS011;9633;50.980;13.850;2023-03-14T01:57:19;3.63;;;3.27;;
18999;SDS011;9633;50.980;13.850;2023-03-14T01:58:54;3.83;;;3.30;;
18999;SDS011;9633;50.980;13.850;2023-03-14T02:00:27;3.27;;;2.97;;
18999;SDS011;9633;50.980;13.850;2023-03-14T02:02:00;4.60;;;3.40;;
18999;SDS011;9633;50.980;13.850;2023-03-14T02:03:36;4.10;;;3.50;;
18999;SDS011;9633;50.980;13.850;2023-03-14T02:05:17;3.77;;;3.27;;
18999;SDS011;9633;50.980;13.850;2023-03-14T02:07:00;3.97;;;3.63;;
18999;SDS011;9633;50.980;13.850;2023-03-14T02:08:42;4.30;;;3.57;;
18999;SDS011;9633;50.980;13.850;2023-03-14T02:10:23;3.97;;;3.47;;
18999;SDS011;9633;50.980;13.850;2023-03-14T02:12:00;3.57;;;3.27;;
18999;SDS011;9633;50.980;13.850;2023-03-14T02:13:47;4.57;;;3.30;;
18999;SDS011;9633;50.980;13.850;2023-03-14T02:15:35;3.60;;;3.27;;
18999;SDS011;9633;50.980;13.850;2023-03-14T02:17:16;4.10;;;3.20;;
18999;SDS011;9633;50.980;13.850;2023-03-14T02:19:08;3.90;;;3.17;;
18999;SDS011;9633;50.980;13.850;2023-03-14T02:21:00;3.97;;;3.57;;
18999;SDS011;9633;50.980;13.850;2023-03-14T02:22:38;3.77;;;3.40;;
18999;SDS011;9633;50.980;13.850;2023-03-14T02:24:16;4.20;;;3.33;;
18999;SDS011;9633;50.980;13.850;2023-03-14T02:26:03;3.50;;;3.17;;
18999;SDS011;9633;50.980;13.850;2023-03-14T02:27:42;4.43;;;3.30;;
18999;SDS011;9633;50.980;13.850;2023-03-14T02:29:17;3.87;;;3.33;;
18999;SDS011;9633;50.980;13.850;2023-03-14T02:30:51;3.37;;;3.07;;
18999;SDS011;9633;50.980;13.850;2023-03-14T02:32:25;3.53;;;3.23;;
18999;SDS011;9633;50.980;13.850;2023-03-14T02:34:00;3.57;;;3.13;;
18999;SDS011;9633;50.980;13.850;2023-03-14T02:35:37;3.40;;;3.10;;
18999;SDS011;9633;50.980;13.850;2023-03-14T02:37:12;3.60;;;3.10;;
18999;SDS011;9633;50.980;13.850;2023-03-14T02:38:50;3.40;;;3.10;;
18999;SDS011;9633;50.980;13.850;2023-03-14T02:40:30;3.40;;;3.10;;
18999;SDS011;9633;50.980;13.850;2023-03-14T02:42:03;3.73;;;3.33;;
18999;SDS011;9633;50.980;13.850;2023-03-14T02:43:36;4.03;;;3.37;;
18999;SDS011;9633;50.980;13.850;2023-03-14T02:45:29;2.90;;;2.50;;
18999;SDS011;9633;50.980;13.850;2023-03-14T02:47:13;4.30;;;2.80;;
18999;SDS011;9633;50.980;13.850;2023-03-14T02:48:47;3.27;;;3.00;;
18999;SDS011;9633;50.980;13.850;2023-03-14T02:50:24;3.73;;;3.40;;
18999;SDS011;9633;50.980;13.850;2023-03-14T02:52:01;3.07;;;2.40;;
18999;SDS011;9633;50.980;13.850;2023-03-14T02:53:35;3.10;;;2.80;;
18999;SDS011;9633;50.980;13.850;2023-03-14T02:55:14;2.67;;;2.30;;
18999;SDS011;9633;50.980;13.850;2023-03-14T02:56:49;1.30;;;1.20;;
18999;SDS011;9633;50.980;13.850;2023-03-14T02:58:22;1.23;;;1.13;;
18999;SDS011;9633;50.980;13.850;2023-03-14T03:00:03;2.10;;;1.90;;
18999;SDS011;9633;50.980;13.850;2023-03-14T03:01:39;2.57;;;2.03;;
18999;SDS011;9633;50.980;13.850;2023-03-14T03:03:13;1.70;;;1.60;;
18999;SDS011;9633;50.980;13.850;2023-03-14T03:04:46;1.57;;;1.47;;
18999;SDS011;9633;50.980;13.850;2023-03-14T03:06:21;1.70;;;1.60;;
18999;SDS011;9633;50.980;13.850;2023-03-14T03:07:54;0.93;;;0.80;;
18999;SDS011;9633;50.980;13.850;2023-03-14T03:09:28;1.00;;;0.90;;
18999;SDS011;9633;50.980;13.850;2023-03-14T03:11:01;1.40;;;0.70;;
18999;SDS011;9633;50.980;13.850;2023-03-14T03:12:36;0.50;;;0.50;;
18999;SDS011;9633;50.980;13.850;2023-03-14T03:14:09;0.43;;;0.43;;
18999;SDS011;9633;50.980;13.850;2023-03-14T03:15:44;1.07;;;0.40;;
18999;SDS011;9633;50.980;13.850;2023-03-14T03:17:17;0.50;;;0.50;;
18999;SDS011;9633;50.980;13.850;2023-03-14T03:18:51;0.50;;;0.50;;
18999;SDS011;9633;50.980;13.850;2023-03-14T03:20:24;0.70;;;0.30;;
18999;SDS011;9633;50.980;13.850;2023-03-14T03:21:57;0.57;;;0.40;;
18999;SDS011;9633;50.980;13.850;2023-03-14T03:23:30;0.30;;;0.30;;
18999;SDS011;9633;50.980;13.850;2023-03-14T03:25:04;0.50;;;0.50;;
18999;SDS011;9633;50.980;13.850;2023-03-14T03:26:39;1.10;;;0.40;;
18999;SDS011;9633;50.980;13.850;2023-03-14T03:28:14;0.50;;;0.30;;
18999;SDS011;9633;50.980;13.850;2023-03-14T03:29:47;0.53;;;0.50;;
18999;SDS011;9633;50.980;13.850;2023-03-14T03:31:21;0.57;;;0.40;;
18999;SDS011;9633;50.980;13.850;2023-03-14T03:32:54;0.63;;;0.40;;
18999;SDS011;9633;50.980;13.850;2023-03-14T03:34:26;0.43;;;0.43;;
18999;SDS011;9633;50.980;13.850;2023-03-14T03:36:00;0.40;;;0.40;;
18999;SDS011;9633;50.980;13.850;2023-03-14T03:37:37;0.60;;;0.40;;
18999;SDS011;9633;50.980;13.850;2023-03-14T03:39:11;0.70;;;0.40;;
18999;SDS011;9633;50.980;13.850;2023-03-14T03:40:44;0.50;;;0.30;;
18999;SDS011;9633;50.980;13.850;2023-03-14T03:42:17;0.70;;;0.43;;
18999;SDS011;9633;50.980;13.850;2023-03-14T03:43:51;0.30;;;0.30;;
18999;SDS011;9633;50.980;13.850;2023-03-14T03:45:23;0.30;;;0.30;;
18999;SDS011;9633;50.980;13.850;2023-03-14T03:47:01;0.33;;;0.30;;
18999;SDS011;9633;50.980;13.850;2023-03-14T03:48:34;0.47;;;0.40;;
18999;SDS011;9633;50.980;13.850;2023-03-14T03:50:09;0.53;;;0.43;;
18999;SDS011;9633;50.980;13.850;2023-03-14T03:51:43;0.90;;;0.50;;
18999;SDS011;9633;50.980;13.850;2023-03-14T03:53:16;0.40;;;0.40;;
18999;SDS011;9633;50.980;13.850;2023-03-14T03:55:04;0.43;;;0.40;;
18999;SDS011;9633;50.980;13.850;2023-03-14T03:56:37;0.50;;;0.50;;
18999;SDS011;9633;50.980;13.850;2023-03-14T03:58:10;0.33;;;0.33;;
18999;SDS011;9633;50.980;13.850;2023-03-14T03:59:43;0.73;;;0.50;;
18999;SDS011;9633;50.980;13.850;2023-03-14T04:01:17;0.30;;;0.30;;
18999;SDS011;9633;50.980;13.850;2023-03-14T04:02:54;0.33;;;0.33;;
18999;SDS011;9633;50.980;13.850;2023-03-14T04:04:28;0.30;;;0.30;;
18999;SDS011;9633;50.980;13.850;2023-03-14T04:06:01;0.60;;;0.43;;
18999;SDS011;9633;50.980;13.850;2023-03-14T04:07:37;0.50;;;0.50;;
18999;SDS011;9633;50.980;13.850;2023-03-14T04:09:11;0.50;;;0.40;;
18999;SDS011;9633;50.980;13.850;2023-03-14T04:10:48;0.30;;;0.30;;
18999;SDS011;9633;50.980;13.850;2023-03-14T04:12:25;0.50;;;0.40;;
18999;SDS011;9633;50.980;13.850;2023-03-14T04:14:19;1.37;;;0.40;;
18999;SDS011;9633;50.980;13.850;2023-03-14T04:15:59;0.90;;;0.50;;
18999;SDS011;9633;50.980;13.850;2023-03-14T04:17:32;0.40;;;0.40;;
18999;SDS011;9633;50.980;13.850;2023-03-14T04:19:07;0.50;;;0.50;;
18999;SDS011;9633;50.980;13.850;2023-03-14T04:20:40;1.17;;;0.50;;
18999;SDS011;9633;50.980;13.850;2023-03-14T04:22:14;0.40;;;0.40;;
18999;SDS011;9633;50.980;13.850;2023-03-14T04:23:53;0.50;;;0.50;;
18999;SDS011;9633;50.980;13.850;2023-03-14T04:25:27;0.87;;;0.50;;
18999;SDS011;9633;50.980;13.850;2023-03-14T04:27:02;1.63;;;0.43;;
18999;SDS011;9633;50.980;13.850;2023-03-14T04:28:36;0.50;;;0.50;;
18999;SDS011;9633;50.980;13.850;2023-03-14T04:30:11;0.57;;;0.40;;
18999;SDS011;9633;50.980;13.850;2023-03-14T04:32:02;0.40;;;0.40;;
18999;SDS011;9633;50.980;13.850;2023-03-14T04:33:36;1.03;;;0.40;;
18999;SDS011;9633;50.980;13.850;2023-03-14T04:35:10;0.60;;;0.40;;
18999;SDS011;9633;50.980;13.850;2023-03-14T04:36:43;0.73;;;0.40;;
18999;SDS011;9633;50.980;13.850;2023-03-14T04:38:21;0.53;;;0.40;;
18999;SDS011;9633;50.980;13.850;2023-03-14T04:39:55;1.23;;;0.50;;
18999;SDS011;9633;50.980;13.850;2023-03-14T04:41:30;1.43;;;0.53;;
18999;SDS011;9633;50.980;13.850;2023-03-14T04:43:04;0.40;;;0.40;;
18999;SDS011;9633;50.980;13.850;2023-03-14T04:44:38;0.90;;;0.60;;
18999;SDS011;9633;50.980;13.850;2023-03-14T04:46:11;2.17;;;0.50;;
18999;SDS011;9633;50.980;13.850;2023-03-14T04:47:44;0.40;;;0.40;;
18999;SDS011;9633;50.980;13.850;2023-03-14T04:49:21;0.50;;;0.50;;
18999;SDS011;9633;50.980;13.850;2023-03-14T04:50:56;0.57;;;0.30;;
18999;SDS011;9633;50.980;13.850;2023-03-14T04:52:33;1.30;;;0.40;;
18999;SDS011;9633;50.980;13.850;2023-03-14T04:54:07;2.37;;;0.50;;
18999;SDS011;9633;50.980;13.850;2023-03-14T04:55:40;1.00;;;0.50;;
18999;SDS011;9633;50.980;13.850;2023-03-14T04:57:13;0.47;;;0.47;;
18999;SDS011;9633;50.980;13.850;2023-03-14T04:58:47;0.87;;;0.47;;
18999;SDS011;9633;50.980;13.850;2023-03-14T05:00:21;0.47;;;0.47;;
18999;SDS011;9633;50.980;13.850;2023-03-14T05:02:13;1.80;;;0.50;;
18999;SDS011;9633;50.980;13.850;2023-03-14T05:03:58;3.40;;;0.50;;
18999;SDS011;9633;50.980;13.850;2023-03-14T05:05:59;0.80;;;0.50;;
18999;SDS011;9633;50.980;13.850;2023-03-14T05:07:41;0.63;;;0.40;;
18999;SDS011;9633;50.980;13.850;2023-03-14T05:09:33;4.27;;;0.67;;
18999;SDS011;9633;50.980;13.850;2023-03-14T05:11:29;1.47;;;0.80;;
18999;SDS011;9633;50.980;13.850;2023-03-14T05:13:14;1.40;;;0.60;;
18999;SDS011;9633;50.980;13.850;2023-03-14T05:15:07;1.60;;;0.60;;
18999;SDS011;9633;50.980;13.850;2023-03-14T05:17:04;0.90;;;0.60;;
18999;SDS011;9633;50.980;13.850;2023-03-14T05:19:03;1.60;;;0.70;;
18999;SDS011;9633;50.980;13.850;2023-03-14T05:21:10;2.20;;;0.60;;
18999;SDS011;9633;50.980;13.850;2023-03-14T05:22:43;1.03;;;0.53;;
18999;SDS011;9633;50.980;13.850;2023-03-14T05:24:36;2.60;;;0.73;;
18999;SDS011;9633;50.980;13.850;2023-03-14T05:26:39;2.27;;;0.70;;
18999;SDS011;9633;50.980;13.850;2023-03-14T05:28:25;1.53;;;0.60;;
18999;SDS011;9633;50.980;13.850;2023-03-14T05:30:27;1.40;;;0.60;;
18999;SDS011;9633;50.980;13.850;2023-03-14T05:32:15;4.00;;;0.90;;
18999;SDS011;9633;50.980;13.850;2023-03-14T05:34:14;1.27;;;0.60;;
18999;SDS011;9633;50.980;13.850;2023-03-14T05:36:08;3.03;;;0.93;;
18999;SDS011;9633;50.980;13.850;2023-03-14T05:38:05;3.10;;;0.90;;
18999;SDS011;9633;50.980;13.850;2023-03-14T05:39:49;2.53;;;0.77;;
18999;SDS011;9633;50.980;13.850;2023-03-14T05:41:36;1.60;;;0.70;;
18999;SDS011;9633;50.980;13.850;2023-03-14T05:43:28;3.03;;;0.80;;
18999;SDS011;9633;50.980;13.850;2023-03-14T05:45:37;1.93;;;0.77;;
18999;SDS011;9633;50.980;13.850;2023-03-14T05:47:21;1.70;;;0.80;;
18999;SDS011;9633;50.980;13.850;2023-03-14T05:49:03;2.77;;;0.77;;
18999;SDS011;9633;50.980;13.850;2023-03-14T05:50:59;2.43;;;0.80;;
18999;SDS011;9633;50.980;13.850;2023-03-14T05:52:51;2.87;;;0.77;;
18999;SDS011;9633;50.980;13.850;2023-03-14T05:54:43;2.53;;;1.00;;
18999;SDS011;9633;50.980;13.850;2023-03-14T05:56:51;1.97;;;0.90;;
18999;SDS011;9633;50.980;13.850;2023-03-14T05:58:47;3.90;;;0.90;;
18999;SDS011;9633;50.980;13.850;2023-03-14T06:00:32;1.93;;;0.80;;
18999;SDS011;9633;50.980;13.850;2023-03-14T06:02:18;4.23;;;1.10;;
18999;SDS011;9633;50.980;13.850;2023-03-14T06:04:01;3.50;;;1.13;;
18999;SDS011;9633;50.980;13.850;2023-03-14T06:05:34;3.90;;;1.30;;
18999;SDS011;9633;50.980;13.850;2023-03-14T06:07:08;6.10;;;1.03;;
18999;SDS011;9633;50.980;13.850;2023-03-14T06:08:42;2.63;;;1.00;;
18999;SDS011;9633;50.980;13.850;2023-03-14T06:10:16;4.97;;;1.27;;
18999;SDS011;9633;50.980;13.850;2023-03-14T06:11:49;2.87;;;1.10;;
18999;SDS011;9633;50.980;13.850;2023-03-14T06:13:22;3.10;;;1.20;;
18999;SDS011;9633;50.980;13.850;2023-03-14T06:14:55;3.40;;;1.10;;
18999;SDS011;9633;50.980;13.850;2023-03-14T06:16:28;2.27;;;0.97;;
18999;SDS011;9633;50.980;13.850;2023-03-14T06:18:04;3.43;;;1.03;;
18999;SDS011;9633;50.980;13.850;2023-03-14T06:19:38;3.10;;;0.90;;
18999;SDS011;9633;50.980;13.850;2023-03-14T06:21:12;4.07;;;1.20;;
18999;SDS011;9633;50.980;13.850;2023-03-14T06:22:47;3.17;;;0.83;;
18999;SDS011;9633;50.980;13.850;2023-03-14T06:24:22;3.20;;;1.10;;
18999;SDS011;9633;50.980;13.850;2023-03-14T06:25:56;2.00;;;1.00;;
18999;SDS011;9633;50.980;13.850;2023-03-14T06:27:29;3.57;;;0.90;;
18999;SDS011;9633;50.980;13.850;2023-03-14T06:29:03;2.80;;;1.10;;
18999;SDS011;9633;50.980;13.850;2023-03-14T06:30:38;3.07;;;1.10;;
18999;SDS011;9633;50.980;13.850;2023-03-14T06:32:13;3.27;;;1.03;;
18999;SDS011;9633;50.980;13.850;2023-03-14T06:33:47;4.03;;;1.00;;
18999;SDS011;9633;50.980;13.850;2023-03-14T06:35:20;4.07;;;1.30;;
18999;SDS011;9633;50.980;13.850;2023-03-14T06:36:54;4.40;;;1.10;;
18999;SDS011;9633;50.980;13.850;2023-03-14T06:38:27;1.53;;;0.90;;
18999;SDS011;9633;50.980;13.850;2023-03-14T06:40:03;2.50;;;1.37;;
18999;SDS011;9633;50.980;13.850;2023-03-14T06:41:53;1.93;;;1.20;;
18999;SDS011;9633;50.980;13.850;2023-03-14T06:43:27;3.93;;;1.10;;
18999;SDS011;9633;50.980;13.850;2023-03-14T06:45:00;2.97;;;1.10;;
18999;SDS011;9633;50.980;13.850;2023-03-14T06:46:33;3.67;;;1.10;;
18999;SDS011;9633;50.980;13.850;2023-03-14T06:48:07;4.17;;;1.07;;
18999;SDS011;9633;50.980;13.850;2023-03-14T06:49:53;3.23;;;1.00;;
18999;SDS011;9633;50.980;13.850;2023-03-14T06:51:26;2.57;;;0.83;;
18999;SDS011;9633;50.980;13.850;2023-03-14T06:52:59;3.70;;;1.10;;
18999;SDS011;9633;50.980;13.850;2023-03-14T06:54:33;5.10;;;1.30;;
18999;SDS011;9633;50.980;13.850;2023-03-14T06:56:08;3.97;;;1.20;;
18999;SDS011;9633;50.980;13.850;2023-03-14T06:57:42;2.93;;;0.97;;
18999;SDS011;9633;50.980;13.850;2023-03-14T06:59:16;5.97;;;1.30;;
18999;SDS011;9633;50.980;13.850;2023-03-14T07:00:52;2.07;;;0.80;;
18999;SDS011;9633;50.980;13.850;2023-03-14T07:02:29;2.70;;;0.97;;
18999;SDS011;9633;50.980;13.850;2023-03-14T07:04:22;4.83;;;1.20;;
18999;SDS011;9633;50.980;13.850;2023-03-14T07:05:56;5.00;;;1.60;;
18999;SDS011;9633;50.980;13.850;2023-03-14T07:07:30;5.90;;;1.60;;
18999;SDS011;9633;50.980;13.850;2023-03-14T07:09:03;2.53;;;1.00;;
18999;SDS011;9633;50.980;13.850;2023-03-14T07:10:39;3.10;;;1.30;;
18999;SDS011;9633;50.980;13.850;2023-03-14T07:12:14;4.23;;;1.20;;
18999;SDS011;9633;50.980;13.850;2023-03-14T07:13:48;4.33;;;1.20;;
18999;SDS011;9633;50.980;13.850;2023-03-14T07:15:21;3.77;;;1.30;;
18999;SDS011;9633;50.980;13.850;2023-03-14T07:16:59;2.80;;;1.53;;
18999;SDS011;9633;50.980;13.850;2023-03-14T07:18:32;4.97;;;1.43;;
18999;SDS011;9633;50.980;13.850;2023-03-14T07:20:08;4.93;;;1.30;;
18999;SDS011;9633;50.980;13.850;2023-03-14T07:21:42;4.20;;;1.47;;
18999;SDS011;9633;50.980;13.850;2023-03-14T07:23:18;5.00;;;1.67;;
18999;SDS011;9633;50.980;13.850;2023-03-14T07:24:54;3.13;;;1.23;;
18999;SDS011;9633;50.980;13.850;2023-03-14T07:26:29;3.63;;;1.20;;
18999;SDS011;9633;50.980;13.850;2023-03-14T07:28:05;4.47;;;1.43;;
18999;SDS011;9633;50.980;13.850;2023-03-14T07:29:38;4.13;;;1.47;;
18999;SDS011;9633;50.980;13.850;2023-03-14T07:31:12;4.00;;;1.30;;
18999;SDS011;9633;50.980;13.850;2023-03-14T07:32:45;4.37;;;1.60;;
18999;SDS011;9633;50.980;13.850;2023-03-14T07:34:19;3.80;;;1.60;;
18999;SDS011;9633;50.980;13.850;2023-03-14T07:35:53;3.93;;;1.37;;
18999;SDS011;9633;50.980;13.850;2023-03-14T07:37:27;5.17;;;1.47;;
18999;SDS011;9633;50.980;13.850;2023-03-14T07:39:01;4.47;;;1.47;;
18999;SDS011;9633;50.980;13.850;2023-03-14T07:40:44;4.10;;;1.73;;
18999;SDS011;9633;50.980;13.850;2023-03-14T07:42:17;4.97;;;2.13;;
18999;SDS011;9633;50.980;13.850;2023-03-14T07:44:25;3.57;;;2.50;;
18999;SDS011;9633;50.980;13.850;2023-03-14T07:45:59;4.83;;;2.60;;
18999;SDS011;9633;50.980;13.850;2023-03-14T07:47:32;5.03;;;2.47;;
18999;SDS011;9633;50.980;13.850;2023-03-14T07:49:05;6.43;;;2.50;;
18999;SDS011;9633;50.980;13.850;2023-03-14T07:50:38;4.23;;;2.40;;
18999;SDS011;9633;50.980;13.850;2023-03-14T07:52:11;4.30;;;2.47;;
18999;SDS011;9633;50.980;13.850;2023-03-14T07:53:44;4.97;;;2.00;;
18999;SDS011;9633;50.980;13.850;2023-03-14T07:55:17;2.90;;;2.20;;
18999;SDS011;9633;50.980;13.850;2023-03-14T07:56:50;6.83;;;2.33;;
18999;SDS011;9633;50.980;13.850;2023-03-14T07:58:24;4.17;;;2.20;;
18999;SDS011;9633;50.980;13.850;2023-03-14T07:59:58;4.27;;;2.07;;
18999;SDS011;9633;50.980;13.850;2023-03-14T08:01:32;3.67;;;2.17;;
18999;SDS011;9633;50.980;13.850;2023-03-14T08:03:05;6.60;;;2.20;;
18999;SDS011;9633;50.980;13.850;2023-03-14T08:04:38;4.97;;;2.00;;
18999;SDS011;9633;50.980;13.850;2023-03-14T08:06:12;2.53;;;2.00;;
18999;SDS011;9633;50.980;13.850;2023-03-14T08:07:45;2.90;;;2.20;;
18999;SDS011;9633;50.980;13.850;2023-03-14T08:09:18;4.40;;;1.80;;
18999;SDS011;9633;50.980;13.850;2023-03-14T08:10:51;3.73;;;1.83;;
18999;SDS011;9633;50.980;13.850;2023-03-14T08:12:25;3.97;;;2.00;;
18999;SDS011;9633;50.980;13.850;2023-03-14T08:13:58;4.13;;;1.90;;
18999;SDS011;9633;50.980;13.850;2023-03-14T08:15:32;2.60;;;1.70;;
18999;SDS011;9633;50.980;13.850;2023-03-14T08:17:06;7.27;;;1.97;;
18999;SDS011;9633;50.980;13.850;2023-03-14T08:18:39;4.30;;;1.90;;
18999;SDS011;9633;50.980;13.850;2023-03-14T08:20:12;3.43;;;2.20;;
18999;SDS011;9633;50.980;13.850;2023-03-14T08:21:45;3.13;;;1.40;;
18999;SDS011;9633;50.980;13.850;2023-03-14T08:23:18;2.90;;;0.90;;
18999;SDS011;9633;50.980;13.850;2023-03-14T08:24:52;4.13;;;0.90;;
18999;SDS011;9633;50.980;13.850;2023-03-14T08:26:25;3.57;;;1.00;;
18999;SDS011;9633;50.980;13.850;2023-03-14T08:27:58;1.20;;;0.70;;
18999;SDS011;9633;50.980;13.850;2023-03-14T08:29:32;2.63;;;0.90;;
18999;SDS011;9633;50.980;13.850;2023-03-14T08:31:07;1.70;;;0.80;;
18999;SDS011;9633;50.980;13.850;2023-03-14T08:32:40;1.70;;;0.67;;
18999;SDS011;9633;50.980;13.850;2023-03-14T08:34:13;2.47;;;0.80;;
18999;SDS011;9633;50.980;13.850;2023-03-14T08:35:47;1.63;;;0.80;;
18999;SDS011;9633;50.980;13.850;2023-03-14T08:37:20;2.33;;;0.80;;
18999;SDS011;9633;50.980;13.850;2023-03-14T08:38:57;3.00;;;0.73;;
18999;SDS011;9633;50.980;13.850;2023-03-14T08:40:30;1.60;;;0.70;;
18999;SDS011;9633;50.980;13.850;2023-03-14T08:42:05;2.07;;;0.87;;
18999;SDS011;9633;50.980;13.850;2023-03-14T08:43:38;1.63;;;0.70;;
18999;SDS011;9633;50.980;13.850;2023-03-14T08:45:12;2.27;;;1.00;;
18999;SDS011;9633;50.980;13.850;2023-03-14T08:46:47;3.70;;;0.90;;
18999;SDS011;9633;50.980;13.850;2023-03-14T08:48:20;0.77;;;0.60;;
18999;SDS011;9633;50.980;13.850;2023-03-14T08:49:54;1.70;;;0.70;;
18999;SDS011;9633;50.980;13.850;2023-03-14T08:51:27;3.23;;;0.80;;
18999;SDS011;9633;50.980;13.850;2023-03-14T08:53:00;3.53;;;0.80;;
18999;SDS011;9633;50.980;13.850;2023-03-14T08:54:34;1.90;;;0.70;;
18999;SDS011;9633;50.980;13.850;2023-03-14T08:56:07;1.60;;;0.93;;
18999;SDS011;9633;50.980;13.850;2023-03-14T08:57:42;3.30;;;0.80;;
18999;SDS011;9633;50.980;13.850;2023-03-14T08:59:15;3.10;;;0.70;;
18999;SDS011;9633;50.980;13.850;2023-03-14T09:00:49;1.40;;;0.70;;
18999;SDS011;9633;50.980;13.850;2023-03-14T09:02:24;1.97;;;0.80;;
18999;SDS011;9633;50.980;13.850;2023-03-14T09:03:58;2.73;;;0.70;;
18999;SDS011;9633;50.980;13.850;2023-03-14T09:05:32;3.00;;;0.80;;
18999;SDS011;9633;50.980;13.850;2023-03-14T09:07:06;2.30;;;0.63;;
18999;SDS011;9633;50.980;13.850;2023-03-14T09:08:39;2.00;;;0.90;;
18999;SDS011;9633;50.980;13.850;2023-03-14T09:10:12;2.40;;;0.80;;
18999;SDS011;9633;50.980;13.850;2023-03-14T09:11:46;1.43;;;0.70;;
18999;SDS011;9633;50.980;13.850;2023-03-14T09:13:19;1.50;;;0.70;;
18999;SDS011;9633;50.980;13.850;2023-03-14T09:14:52;1.50;;;0.90;;
18999;SDS011;9633;50.980;13.850;2023-03-14T09:16:25;0.93;;;0.60;;
18999;SDS011;9633;50.980;13.850;2023-03-14T09:18:00;3.67;;;1.00;;
18999;SDS011;9633;50.980;13.850;2023-03-14T09:19:35;1.87;;;0.60;;
18999;SDS011;9633;50.980;13.850;2023-03-14T09:21:08;3.20;;;0.90;;
18999;SDS011;9633;50.980;13.850;2023-03-14T09:22:41;1.33;;;0.70;;
18999;SDS011;9633;50.980;13.850;2023-03-14T09:24:15;1.50;;;0.70;;
18999;SDS011;9633;50.980;13.850;2023-03-14T09:25:49;1.83;;;0.80;;
18999;SDS011;9633;50.980;13.850;2023-03-14T09:27:26;1.83;;;0.70;;
18999;SDS011;9633;50.980;13.850;2023-03-14T09:28:59;2.30;;;0.97;;
18999;SDS011;9633;50.980;13.850;2023-03-14T09:30:32;2.50;;;0.90;;
18999;SDS011;9633;50.980;13.850;2023-03-14T09:32:05;2.13;;;0.90;;
18999;SDS011;9633;50.980;13.850;2023-03-14T09:33:42;1.60;;;0.80;;
18999;SDS011;9633;50.980;13.850;2023-03-14T09:35:16;2.30;;;0.70;;
18999;SDS011;9633;50.980;13.850;2023-03-14T09:36:49;2.60;;;0.70;;
18999;SDS011;9633;50.980;13.850;2023-03-14T09:38:23;1.97;;;0.70;;
18999;SDS011;9633;50.980;13.850;2023-03-14T09:39:56;1.90;;;0.80;;
18999;SDS011;9633;50.980;13.850;2023-03-14T09:41:31;1.20;;;0.53;;
18999;SDS011;9633;50.980;13.850;2023-03-14T09:43:08;1.70;;;0.77;;
18999;SDS011;9633;50.980;13.850;2023-03-14T09:44:46;3.30;;;0.80;;